Time;durP1;ratioP1;P1;durP2;ratioP2;P2;SDS_P1;SDS_P2;PMS_P1;PMS_P2;Temp;Humidity;BMP_temperature;BMP_pressure;BME280_temperature;BME280_humidity;BME280_pressure;Samples;Min_cycle;Max_cycle;Signal;HPM_P1;HPM_P2
2023/09/22 04:43:54;;;;;;;1999.90;999.90;;;;;;;;;;4950100;23;20419;-67
2023/09/22 04:46:21;;;;;;;1999.90;999.90;;;;;;;;;;4971244;28;20051;-67
2023/09/22 04:48:47;;;;;;;1999.90;999.90;;;;;;;;;;4972804;28;20031;-66
2023/09/22 04:51:14;;;;;;;1999.90;999.90;;;;;;;;;;4972669;28;20038;-67
2023/09/22 04:53:41;;;;;;;1999.90;999.90;;;;;;;;;;4972690;28;20098;-68
2023/09/22 04:56:07;;;;;;;1999.90;999.90;;;;;;;;;;4972393;28;20022;-68
2023/09/22 04:58:34;;;;;;;1999.90;999.90;;;;;;;;;;4972748;28;20026;-68
2023/09/22 05:01:02;;;;;;;1999.90;999.90;;;;;;;;;;4972530;28;20035;-68
2023/09/22 05:03:31;;;;;;;1999.90;999.90;;;;;;;;;;4970683;28;20030;-68
2023/09/22 05:06:09;;;;;;;1999.90;999.90;;;;;;;;;;4970621;28;20040;-67
2023/09/22 05:08:37;;;;;;;1999.90;999.90;;;;;;;;;;4972305;28;20047;-67
2023/09/22 05:11:07;;;;;;;1999.90;999.90;;;;;;;;;;4971021;28;20110;-68
2023/09/22 05:13:34;;;;;;;1999.90;999.90;;;;;;;;;;4972110;28;20536;-68
2023/09/22 05:16:10;;;;;;;1999.90;999.90;;;;;;;;;;4971883;28;20035;-68
2023/09/22 05:18:39;;;;;;;1999.90;999.90;;;;;;;;;;4972109;28;20150;-68
2023/09/22 05:21:06;;;;;;;1999.90;999.90;;;;;;;;;;4971747;28;20026;-68
2023/09/22 05:23:32;;;;;;;1999.90;999.90;;;;;;;;;;4972054;28;20101;-69
2023/09/22 05:26:08;;;;;;;1999.90;999.90;;;;;;;;;;4971864;28;20043;-68
2023/09/22 05:28:37;;;;;;;1999.90;999.90;;;;;;;;;;4970126;28;20066;-69
2023/09/22 05:31:04;;;;;;;1999.90;999.90;;;;;;;;;;4971540;28;20042;-71
2023/09/22 05:33:31;;;;;;;1999.90;999.90;;;;;;;;;;4971598;28;20031;-67
2023/09/22 05:35:57;;;;;;;1999.90;999.90;;;;;;;;;;4954198;28;20094;-67
2023/09/22 05:38:23;;;;;;;1999.90;999.90;;;;;;;;;;4971855;28;20057;-68
2023/09/22 05:40:49;;;;;;;1999.90;999.90;;;;;;;;;;4970848;28;20058;-69
2023/09/22 05:43:17;;;;;;;1999.90;999.90;;;;;;;;;;4971531;28;20652;-68
2023/09/22 05:45:44;;;;;;;1999.90;999.90;;;;;;;;;;4969800;28;20071;-69
2023/09/22 05:48:10;;;;;;;1999.90;999.90;;;;;;;;;;4971527;28;20051;-67
2023/09/22 05:50:36;;;;;;;1999.90;999.90;;;;;;;;;;4971567;28;20037;-69
2023/09/22 05:53:08;;;;;;;1999.90;999.90;;;;;;;;;;4952940;28;20578;-66
2023/09/22 05:55:36;;;;;;;1999.90;999.90;;;;;;;;;;4942270;28;20088;-68
2023/09/22 05:58:02;;;;;;;1999.90;999.90;;;;;;;;;;4969388;28;20395;-68
2023/09/22 06:00:31;;;;;;;1999.90;999.90;;;;;;;;;;4971547;28;20110;-68
2023/09/22 06:02:57;;;;;;;1999.90;999.90;;;;;;;;;;4971577;28;20019;-68
2023/09/22 06:05:24;;;;;;;1999.90;999.90;;;;;;;;;;4971477;28;20035;-67
2023/09/22 06:07:50;;;;;;;1999.90;999.90;;;;;;;;;;4971198;28;20479;-69
2023/09/22 06:10:16;;;;;;;1999.90;999.90;;;;;;;;;;4968901;28;20038;-69
2023/09/22 06:12:42;;;;;;;1999.90;999.90;;;;;;;;;;4939447;29;20028;-69
2023/09/22 06:15:09;;;;;;;1999.90;999.90;;;;;;;;;;4942475;28;20031;-69
2023/09/22 06:17:37;;;;;;;1999.90;999.90;;;;;;;;;;4942199;29;20384;-69
2023/09/22 06:20:13;;;;;;;1999.90;999.90;;;;;;;;;;4941276;29;20024;-69
2023/09/22 06:22:39;;;;;;;1999.90;999.90;;;;;;;;;;4939875;29;20024;-68
2023/09/22 06:25:05;;;;;;;1999.90;999.90;;;;;;;;;;4942926;29;20031;-70
2023/09/22 06:27:32;;;;;;;1999.90;999.90;;;;;;;;;;4940174;29;20039;-68
2023/09/22 06:29:58;;;;;;;1999.90;999.90;;;;;;;;;;4951668;29;20032;-66
2023/09/22 06:32:25;;;;;;;1999.90;999.90;;;;;;;;;;4952044;29;20056;-69
2023/09/22 06:34:53;;;;;;;1999.90;999.90;;;;;;;;;;4948161;29;20497;-71
2023/09/22 06:37:19;;;;;;;1999.90;999.90;;;;;;;;;;4942439;29;20063;-68
2023/09/22 06:39:46;;;;;;;1999.90;999.90;;;;;;;;;;4925491;29;20035;-68
2023/09/22 06:42:12;;;;;;;1999.90;999.90;;;;;;;;;;4940634;29;20043;-69
2023/09/22 06:44:39;;;;;;;1999.90;999.90;;;;;;;;;;4939179;29;20039;-68
2023/09/22 06:47:05;;;;;;;1999.90;999.90;;;;;;;;;;4951507;29;20075;-68
2023/09/22 06:49:33;;;;;;;1999.90;999.90;;;;;;;;;;4952226;29;20099;-67
2023/09/22 06:52:00;;;;;;;1999.90;999.90;;;;;;;;;;4954612;28;20067;-69
2023/09/22 06:54:26;;;;;;;1999.90;999.90;;;;;;;;;;4955443;29;20031;-67
2023/09/22 06:56:54;;;;;;;1999.90;999.90;;;;;;;;;;4955706;29;20027;-68
2023/09/22 06:59:22;;;;;;;1999.90;999.90;;;;;;;;;;4953048;28;20368;-68
2023/09/22 07:01:50;;;;;;;1999.90;999.90;;;;;;;;;;4956035;29;20055;-68
2023/09/22 07:04:17;;;;;;;1999.90;999.90;;;;;;;;;;4952293;28;20478;-67
2023/09/22 07:06:43;;;;;;;1999.90;999.90;;;;;;;;;;4954944;29;20031;-68
2023/09/22 07:09:11;;;;;;;1999.90;999.90;;;;;;;;;;4954695;29;20053;-67
2023/09/22 07:11:40;;;;;;;1999.90;999.90;;;;;;;;;;4954739;29;20043;-67
2023/09/22 07:14:10;;;;;;;1999.90;999.90;;;;;;;;;;4954893;28;20031;-68
2023/09/22 07:16:36;;;;;;;1999.90;999.90;;;;;;;;;;4954487;29;20143;-70
2023/09/22 07:19:03;;;;;;;1999.90;999.90;;;;;;;;;;4954779;29;20023;-66
2023/09/22 07:21:29;;;;;;;1999.90;999.90;;;;;;;;;;4954831;29;20055;-70
2023/09/22 07:23:56;;;;;;;1999.90;999.90;;;;;;;;;;4954428;29;20074;-71
2023/09/22 07:26:26;;;;;;;1999.90;999.90;;;;;;;;;;4956436;28;20035;-68
2023/09/22 07:28:52;;;;;;;1999.90;999.90;;;;;;;;;;4963828;28;20113;-68
2023/09/22 07:31:18;;;;;;;1999.90;999.90;;;;;;;;;;4963849;28;20038;-69
2023/09/22 07:33:44;;;;;;;1999.90;999.90;;;;;;;;;;4949507;28;20497;-68
2023/09/22 07:36:11;;;;;;;1999.90;999.90;;;;;;;;;;4952208;29;20035;-70
2023/09/22 07:38:38;;;;;;;1999.90;999.90;;;;;;;;;;4954335;28;20518;-66
2023/09/22 07:41:04;;;;;;;1999.90;999.90;;;;;;;;;;4956585;29;20082;-68
2023/09/22 07:43:30;;;;;;;1999.90;999.90;;;;;;;;;;4953817;29;20157;-69
2023/09/22 07:46:03;;;;;;;1999.90;999.90;;;;;;;;;;4954439;29;20035;-67
2023/09/22 07:48:30;;;;;;;1999.90;999.90;;;;;;;;;;4954186;29;20490;-69
2023/09/22 07:50:56;;;;;;;1999.90;999.90;;;;;;;;;;4954200;28;20035;-70
2023/09/22 07:53:25;;;;;;;1999.90;999.90;;;;;;;;;;4954278;29;20031;-69
2023/09/22 07:55:52;;;;;;;1999.90;999.90;;;;;;;;;;4952806;29;20031;-66
2023/09/22 07:58:18;;;;;;;1999.90;999.90;;;;;;;;;;4952295;29;20039;-66
2023/09/22 08:00:46;;;;;;;1999.90;999.90;;;;;;;;;;4950917;28;20039;-69
2023/09/22 08:03:13;;;;;;;1999.90;999.90;;;;;;;;;;4941745;29;20024;-67
2023/09/22 08:05:39;;;;;;;1999.90;999.90;;;;;;;;;;4945113;29;20039;-67
2023/09/22 08:08:06;;;;;;;1999.90;999.90;;;;;;;;;;4944879;29;20047;-71
2023/09/22 08:10:32;;;;;;;1999.90;999.90;;;;;;;;;;4944533;29;20031;-68
2023/09/22 08:12:59;;;;;;;1999.90;999.90;;;;;;;;;;4953848;29;20061;-66
2023/09/22 08:15:26;;;;;;;1999.90;999.90;;;;;;;;;;4954153;28;20031;-66
2023/09/22 08:17:52;;;;;;;1999.90;999.90;;;;;;;;;;4953954;29;20411;-72
2023/09/22 08:20:19;;;;;;;1999.90;999.90;;;;;;;;;;4953839;29;20038;-70
2023/09/22 08:22:47;;;;;;;1999.90;999.90;;;;;;;;;;4953502;29;20019;-71
2023/09/22 08:25:13;;;;;;;1999.90;999.90;;;;;;;;;;4954264;28;20062;-71
2023/09/22 08:27:40;;;;;;;1999.90;999.90;;;;;;;;;;4953409;29;20086;-67
2023/09/22 08:30:11;;;;;;;1999.90;999.90;;;;;;;;;;4951183;28;20114;-67
2023/09/22 08:32:42;;;;;;;1999.90;999.90;;;;;;;;;;4952612;29;20054;-69
2023/09/22 08:35:12;;;;;;;1999.90;999.90;;;;;;;;;;4952685;29;20389;-69
2023/09/22 08:37:41;;;;;;;1999.90;999.90;;;;;;;;;;4953082;29;20050;-69
2023/09/22 08:40:09;;;;;;;1999.90;999.90;;;;;;;;;;4947396;28;20103;-69
2023/09/22 08:42:36;;;;;;;1999.90;999.90;;;;;;;;;;4948454;28;20046;-70
2023/09/22 08:45:03;;;;;;;1999.90;999.90;;;;;;;;;;4971996;28;20031;-69
2023/09/22 08:47:29;;;;;;;1999.90;999.90;;;;;;;;;;4972231;28;20050;-72
2023/09/22 08:49:55;;;;;;;1999.90;999.90;;;;;;;;;;4972003;28;20023;-69
2023/09/22 08:52:23;;;;;;;1999.90;999.90;;;;;;;;;;4972205;28;20041;-70
2023/09/22 08:54:49;;;;;;;1999.90;999.90;;;;;;;;;;4954733;28;20754;-71
2023/09/22 08:57:18;;;;;;;1999.90;999.90;;;;;;;;;;4971271;28;20085;-66
2023/09/22 08:59:44;;;;;;;1999.90;999.90;;;;;;;;;;4963885;28;20086;-66
2023/09/22 09:02:13;;;;;;;1999.90;999.90;;;;;;;;;;4963481;28;20027;-71
2023/09/22 09:04:40;;;;;;;1999.90;999.90;;;;;;;;;;4961929;28;20097;-69
2023/09/22 09:07:06;;;;;;;1999.90;999.90;;;;;;;;;;4964344;28;20031;-68
2023/09/22 09:09:43;;;;;;;1999.90;999.90;;;;;;;;;;4967622;28;20100;-68
2023/09/22 09:12:09;;;;;;;1999.90;999.90;;;;;;;;;;4965130;28;20038;-70
2023/09/22 09:14:37;;;;;;;1999.90;999.90;;;;;;;;;;4960793;28;20106;-69
2023/09/22 09:17:17;;;;;;;1999.90;999.90;;;;;;;;;;4959919;28;20027;-71
2023/09/22 09:19:43;;;;;;;1999.90;999.90;;;;;;;;;;4959656;28;20035;-69
2023/09/22 09:22:09;;;;;;;1999.90;999.90;;;;;;;;;;4944146;28;20522;-69
2023/09/22 09:24:36;;;;;;;1999.90;999.90;;;;;;;;;;4960668;28;20089;-73
2023/09/22 09:27:18;;;;;;;1999.90;999.90;;;;;;;;;;4959254;28;20042;-71
2023/09/22 09:29:46;;;;;;;1999.90;999.90;;;;;;;;;;4962404;28;20034;-71
2023/09/22 09:32:21;;;;;;;1999.90;999.90;;;;;;;;;;4954302;28;20041;-68
2023/09/22 09:34:48;;;;;;;1999.90;999.90;;;;;;;;;;4953786;28;20490;-69
2023/09/22 09:37:14;;;;;;;1999.90;999.90;;;;;;;;;;4971585;28;20030;-69
2023/09/22 09:39:45;;;;;;;1999.90;999.90;;;;;;;;;;4954030;28;20047;-68
2023/09/22 09:42:15;;;;;;;1999.90;999.90;;;;;;;;;;4953414;28;20046;-70
2023/09/22 09:44:47;;;;;;;1999.90;999.90;;;;;;;;;;4971339;28;20050;-67
2023/09/22 09:47:15;;;;;;;1999.90;999.90;;;;;;;;;;4971213;28;20034;-69
2023/09/22 09:49:43;;;;;;;1999.90;999.90;;;;;;;;;;4971577;28;20034;-68
2023/09/22 09:52:09;;;;;;;1999.90;999.90;;;;;;;;;;4971518;28;20765;-68
2023/09/22 09:54:39;;;;;;;1999.90;999.90;;;;;;;;;;4954103;28;20389;-69
2023/09/22 09:57:08;;;;;;;1999.90;999.90;;;;;;;;;;4971496;28;20042;-69
2023/09/22 09:59:38;;;;;;;1999.90;999.90;;;;;;;;;;4971696;28;20967;-68
2023/09/22 10:02:04;;;;;;;1999.90;999.90;;;;;;;;;;4971103;28;20039;-67
2023/09/22 10:04:30;;;;;;;1999.90;999.90;;;;;;;;;;4945580;29;20053;-67
2023/09/22 10:06:57;;;;;;;1999.90;999.90;;;;;;;;;;4951738;28;20035;-67
2023/09/22 10:09:23;;;;;;;1999.90;999.90;;;;;;;;;;4934654;29;20040;-70
2023/09/22 10:11:50;;;;;;;1999.90;999.90;;;;;;;;;;4952012;28;20110;-68
2023/09/22 10:14:35;;;;;;;1999.90;999.90;;;;;;;;;;4959810;28;20439;-67
2023/09/22 10:17:01;;;;;;;1999.90;999.90;;;;;;;;;;4959658;28;20546;-69
2023/09/22 10:19:42;;;;;;;1999.90;999.90;;;;;;;;;;4960862;28;20022;-69
2023/09/22 10:22:12;;;;;;;1999.90;999.90;;;;;;;;;;4960649;28;20024;-69
2023/09/22 10:24:38;;;;;;;1999.90;999.90;;;;;;;;;;4959445;28;20079;-69
2023/09/22 10:27:11;;;;;;;1999.90;999.90;;;;;;;;;;4963997;28;20066;-69
2023/09/22 10:29:52;;;;;;;1999.90;999.90;;;;;;;;;;4947348;28;20038;-69
2023/09/22 10:32:20;;;;;;;1999.90;999.90;;;;;;;;;;4965143;28;20422;-70
2023/09/22 10:34:49;;;;;;;1999.90;999.90;;;;;;;;;;4963842;28;20019;-70
2023/09/22 10:37:17;;;;;;;1999.90;999.90;;;;;;;;;;4963064;28;20034;-68
2023/09/22 10:40:08;;;;;;;1999.90;999.90;;;;;;;;;;4968820;28;20097;-68
2023/09/22 10:42:40;;;;;;;1999.90;999.90;;;;;;;;;;4973926;28;20518;-68
2023/09/22 10:45:06;;;;;;;1999.90;999.90;;;;;;;;;;4974482;28;20044;-70
2023/09/22 10:47:42;;;;;;;1999.90;999.90;;;;;;;;;;4953664;28;20053;-69
2023/09/22 10:50:12;;;;;;;1999.90;999.90;;;;;;;;;;4944689;28;20042;-70
2023/09/22 10:52:39;;;;;;;1999.90;999.90;;;;;;;;;;4967443;28;20038;-70
2023/09/22 10:55:06;;;;;;;1999.90;999.90;;;;;;;;;;4974642;28;20509;-69
2023/09/22 10:57:33;;;;;;;1999.90;999.90;;;;;;;;;;4956711;28;20101;-70
2023/09/22 11:00:00;;;;;;;1999.90;999.90;;;;;;;;;;4973873;28;20062;-70
2023/09/22 11:02:27;;;;;;;1999.90;999.90;;;;;;;;;;4956672;28;20083;-69
2023/09/22 11:04:54;;;;;;;1999.90;999.90;;;;;;;;;;4974238;28;20039;-69
2023/09/22 11:07:31;;;;;;;1999.90;999.90;;;;;;;;;;4973871;28;20041;-69
2023/09/22 11:09:57;;;;;;;1999.90;999.90;;;;;;;;;;4974499;28;20048;-69
2023/09/22 11:12:23;;;;;;;1999.90;999.90;;;;;;;;;;4973659;28;20027;-69
2023/09/22 11:14:49;;;;;;;1999.90;999.90;;;;;;;;;;4956811;28;20035;-70
2023/09/22 11:17:15;;;;;;;1999.90;999.90;;;;;;;;;;4973758;28;20035;-70
2023/09/22 11:19:54;;;;;;;1999.90;999.90;;;;;;;;;;4958499;28;20102;-69
2023/09/22 11:22:20;;;;;;;1999.90;999.90;;;;;;;;;;4942083;28;20039;-69
2023/09/22 11:24:47;;;;;;;1999.90;999.90;;;;;;;;;;4974072;28;20426;-69
2023/09/22 11:27:13;;;;;;;1999.90;999.90;;;;;;;;;;4956178;28;20390;-70
2023/09/22 11:29:40;;;;;;;1999.90;999.90;;;;;;;;;;4955241;28;20046;-70
2023/09/22 11:32:06;;;;;;;1999.90;999.90;;;;;;;;;;4955532;28;20034;-73
2023/09/22 11:34:33;;;;;;;1999.90;999.90;;;;;;;;;;4973379;28;20026;-70
2023/09/22 11:36:59;;;;;;;1999.90;999.90;;;;;;;;;;4972218;28;20054;-70
2023/09/22 11:39:34;;;;;;;1999.90;999.90;;;;;;;;;;4973297;28;20039;-71
2023/09/22 11:42:01;;;;;;;1999.90;999.90;;;;;;;;;;4972875;28;20042;-70
2023/09/22 11:44:27;;;;;;;1999.90;999.90;;;;;;;;;;4973645;28;20071;-71
2023/09/22 11:46:54;;;;;;;1999.90;999.90;;;;;;;;;;4972644;28;20039;-71
2023/09/22 11:49:20;;;;;;;1999.90;999.90;;;;;;;;;;4973563;28;20042;-70
2023/09/22 11:51:54;;;;;;;1999.90;999.90;;;;;;;;;;4973200;28;20081;-71
2023/09/22 11:54:22;;;;;;;1999.90;999.90;;;;;;;;;;4973440;28;20078;-70
2023/09/22 11:56:50;;;;;;;1999.90;999.90;;;;;;;;;;4973667;28;20031;-70
2023/09/22 11:59:26;;;;;;;1999.90;999.90;;;;;;;;;;4973045;28;20019;-69
2023/09/22 12:01:52;;;;;;;1999.90;999.90;;;;;;;;;;4973686;28;20514;-71
2023/09/22 12:04:19;;;;;;;1999.90;999.90;;;;;;;;;;4972836;28;20045;-73
2023/09/22 12:06:45;;;;;;;1999.90;999.90;;;;;;;;;;4972972;28;20062;-69
2023/09/22 12:09:12;;;;;;;1999.90;999.90;;;;;;;;;;4954928;28;20062;-69
2023/09/22 12:11:39;;;;;;;1999.90;999.90;;;;;;;;;;4973284;28;20097;-69
2023/09/22 12:14:05;;;;;;;1999.90;999.90;;;;;;;;;;4972077;28;20031;-69
2023/09/22 12:16:32;;;;;;;1999.90;999.90;;;;;;;;;;4972806;28;20078;-70
2023/09/22 12:18:58;;;;;;;1999.90;999.90;;;;;;;;;;4972468;28;20022;-70
2023/09/22 12:21:26;;;;;;;1999.90;999.90;;;;;;;;;;4972975;28;20066;-70
2023/09/22 12:23:52;;;;;;;1999.90;999.90;;;;;;;;;;4972469;28;20066;-68
2023/09/22 12:26:18;;;;;;;1999.90;999.90;;;;;;;;;;4972686;28;20041;-67
2023/09/22 12:28:44;;;;;;;1999.90;999.90;;;;;;;;;;4972713;28;20023;-66
2023/09/22 12:31:10;;;;;;;1999.90;999.90;;;;;;;;;;4954561;28;20042;-66
2023/09/22 12:33:40;;;;;;;1999.90;999.90;;;;;;;;;;4955040;28;20034;-67
2023/09/22 12:36:07;;;;;;;1999.90;999.90;;;;;;;;;;4972978;28;20431;-69
2023/09/22 12:38:33;;;;;;;1999.90;999.90;;;;;;;;;;4972854;28;20122;-69
2023/09/22 12:40:59;;;;;;;1999.90;999.90;;;;;;;;;;4973898;28;20066;-67
2023/09/22 12:43:28;;;;;;;1999.90;999.90;;;;;;;;;;4973360;28;20101;-69
2023/09/22 12:45:54;;;;;;;1999.90;999.90;;;;;;;;;;4974153;28;20512;-67
2023/09/22 12:48:21;;;;;;;1999.90;999.90;;;;;;;;;;4971751;28;20423;-70
2023/09/22 12:50:55;;;;;;;1999.90;999.90;;;;;;;;;;4972652;28;20034;-66
2023/09/22 12:53:21;;;;;;;1999.90;999.90;;;;;;;;;;4973390;28;20051;-68
2023/09/22 12:55:47;;;;;;;1999.90;999.90;;;;;;;;;;4955277;28;20082;-69
2023/09/22 12:58:17;;;;;;;1999.90;999.90;;;;;;;;;;4953338;29;20054;-70
2023/09/22 13:00:43;;;;;;;1999.90;999.90;;;;;;;;;;4953029;28;20035;-68
2023/09/22 13:03:10;;;;;;;1999.90;999.90;;;;;;;;;;4935763;29;20081;-69
2023/09/22 13:05:37;;;;;;;1999.90;999.90;;;;;;;;;;4954031;28;20042;-67
2023/09/22 13:08:04;;;;;;;1999.90;999.90;;;;;;;;;;4953032;29;20031;-66
2023/09/22 13:10:30;;;;;;;1999.90;999.90;;;;;;;;;;4953353;29;20031;-67
2023/09/22 13:12:56;;;;;;;1999.90;999.90;;;;;;;;;;4952674;29;20035;-72
2023/09/22 13:15:22;;;;;;;1999.90;999.90;;;;;;;;;;4953233;29;20039;-66
2023/09/22 13:17:48;;;;;;;1999.90;999.90;;;;;;;;;;4952977;29;20024;-74
2023/09/22 13:20:14;;;;;;;1999.90;999.90;;;;;;;;;;4952709;29;20039;-73
2023/09/22 13:22:41;;;;;;;1999.90;999.90;;;;;;;;;;4953008;29;20030;-75
2023/09/22 13:25:08;;;;;;;1999.90;999.90;;;;;;;;;;4952875;29;20106;-73
2023/09/22 13:27:34;;;;;;;1999.90;999.90;;;;;;;;;;4952843;29;20138;-68
2023/09/22 13:30:01;;;;;;;1999.90;999.90;;;;;;;;;;4952518;29;20020;-70
2023/09/22 13:32:27;;;;;;;1999.90;999.90;;;;;;;;;;4952943;29;20031;-68
2023/09/22 13:34:53;;;;;;;1999.90;999.90;;;;;;;;;;4952709;28;20036;-70
2023/09/22 13:37:19;;;;;;;1999.90;999.90;;;;;;;;;;4952809;28;20024;-69
2023/09/22 13:39:45;;;;;;;1999.90;999.90;;;;;;;;;;4953007;29;20118;-73
2023/09/22 13:42:13;;;;;;;1999.90;999.90;;;;;;;;;;4952305;28;20074;-71
2023/09/22 13:44:39;;;;;;;1999.90;999.90;;;;;;;;;;4934852;28;20384;-69
2023/09/22 13:47:05;;;;;;;1999.90;999.90;;;;;;;;;;4952320;29;20031;-72
2023/09/22 13:49:32;;;;;;;1999.90;999.90;;;;;;;;;;4952108;28;20495;-71
2023/09/22 13:51:58;;;;;;;1999.90;999.90;;;;;;;;;;4952169;28;20521;-71
2023/09/22 13:54:24;;;;;;;1999.90;999.90;;;;;;;;;;4952380;29;20031;-72
2023/09/22 13:56:50;;;;;;;1999.90;999.90;;;;;;;;;;4952412;29;20063;-72
2023/09/22 13:59:17;;;;;;;1999.90;999.90;;;;;;;;;;4951889;28;20086;-70
2023/09/22 14:01:44;;;;;;;1999.90;999.90;;;;;;;;;;4954785;28;20111;-73
2023/09/22 14:04:11;;;;;;;1999.90;999.90;;;;;;;;;;4956189;29;20027;-74
2023/09/22 14:06:37;;;;;;;1999.90;999.90;;;;;;;;;;4958251;28;20121;-74
2023/09/22 14:09:04;;;;;;;1999.90;999.90;;;;;;;;;;4946620;28;20276;-75
2023/09/22 14:11:31;;;;;;;1999.90;999.90;;;;;;;;;;4963815;28;20031;-73
2023/09/22 14:13:57;;;;;;;1999.90;999.90;;;;;;;;;;4964624;28;20031;-73
2023/09/22 14:16:25;;;;;;;1999.90;999.90;;;;;;;;;;4947021;28;20057;-73
2023/09/22 14:18:51;;;;;;;1999.90;999.90;;;;;;;;;;4945753;29;20380;-72
2023/09/22 14:21:17;;;;;;;1999.90;999.90;;;;;;;;;;4955413;28;20015;-71
2023/09/22 14:23:43;;;;;;;1999.90;999.90;;;;;;;;;;4955511;29;20027;-72
2023/09/22 14:26:13;;;;;;;1999.90;999.90;;;;;;;;;;4938396;29;20609;-71
2023/09/22 14:28:39;;;;;;;1999.90;999.90;;;;;;;;;;4967846;28;20048;-69
2023/09/22 14:31:05;;;;;;;1999.90;999.90;;;;;;;;;;4994100;28;20134;-69
2023/09/22 14:33:32;;;;;;;1999.90;999.90;;;;;;;;;;4993881;28;20505;-70
2023/09/22 14:36:06;;;;;;;1999.90;999.90;;;;;;;;;;4976429;28;20395;-72
2023/09/22 14:38:32;;;;;;;1999.90;999.90;;;;;;;;;;4961024;28;20480;-69
2023/09/22 14:40:58;;;;;;;1999.90;999.90;;;;;;;;;;4965585;28;20030;-71
2023/09/22 14:43:24;;;;;;;1999.90;999.90;;;;;;;;;;4961257;28;20050;-69
2023/09/22 14:45:50;;;;;;;1999.90;999.90;;;;;;;;;;4960899;28;20043;-70
2023/09/22 14:48:17;;;;;;;1999.90;999.90;;;;;;;;;;4968720;28;20023;-73
2023/09/22 14:50:43;;;;;;;1999.90;999.90;;;;;;;;;;4974096;28;20034;-71
2023/09/22 14:53:09;;;;;;;1999.90;999.90;;;;;;;;;;4969755;28;20032;-71
2023/09/22 14:55:36;;;;;;;1999.90;999.90;;;;;;;;;;4967071;28;20030;-70
2023/09/22 14:58:05;;;;;;;1999.90;999.90;;;;;;;;;;4964739;28;20086;-69
2023/09/22 15:00:33;;;;;;;1999.90;999.90;;;;;;;;;;4963124;28;20051;-71
2023/09/22 15:03:00;;;;;;;1999.90;999.90;;;;;;;;;;4965721;28;20356;-71
2023/09/22 15:05:26;;;;;;;1999.90;999.90;;;;;;;;;;4963532;28;20038;-70
2023/09/22 15:07:52;;;;;;;1999.90;999.90;;;;;;;;;;4966450;28;20023;-70
2023/09/22 15:10:18;;;;;;;1999.90;999.90;;;;;;;;;;4963392;28;20106;-72
2023/09/22 15:12:44;;;;;;;1999.90;999.90;;;;;;;;;;4957023;28;20140;-71
2023/09/22 15:15:10;;;;;;;1999.90;999.90;;;;;;;;;;4936892;29;20058;-72
2023/09/22 15:17:38;;;;;;;1999.90;999.90;;;;;;;;;;4954364;28;20028;-70
2023/09/22 15:20:06;;;;;;;1999.90;999.90;;;;;;;;;;4954669;29;20023;-71
2023/09/22 15:22:32;;;;;;;1999.90;999.90;;;;;;;;;;4956508;28;20042;-70
2023/09/22 15:24:58;;;;;;;1999.90;999.90;;;;;;;;;;4954551;29;20078;-70
2023/09/22 15:27:24;;;;;;;1999.90;999.90;;;;;;;;;;4954971;28;20035;-72
2023/09/22 15:29:50;;;;;;;1999.90;999.90;;;;;;;;;;4954929;29;20090;-71
2023/09/22 15:32:17;;;;;;;1999.90;999.90;;;;;;;;;;4954549;28;20055;-70
2023/09/22 15:34:43;;;;;;;1999.90;999.90;;;;;;;;;;4957351;28;20356;-69
2023/09/22 15:37:12;;;;;;;1999.90;999.90;;;;;;;;;;4954393;29;20531;-71
2023/09/22 15:39:38;;;;;;;1999.90;999.90;;;;;;;;;;4936905;29;20031;-71
2023/09/22 15:42:05;;;;;;;1999.90;999.90;;;;;;;;;;4953646;29;20042;-70
2023/09/22 15:44:32;;;;;;;1999.90;999.90;;;;;;;;;;4961453;28;20031;-72
2023/09/22 15:46:59;;;;;;;1999.90;999.90;;;;;;;;;;4963647;28;20023;-73
2023/09/22 15:49:25;;;;;;;1999.90;999.90;;;;;;;;;;4963054;28;20055;-73
2023/09/22 15:51:51;;;;;;;1999.90;999.90;;;;;;;;;;4960523;28;20042;-73
2023/09/22 15:54:17;;;;;;;1999.90;999.90;;;;;;;;;;4936034;29;20175;-68
2023/09/22 15:56:43;;;;;;;1999.90;999.90;;;;;;;;;;4954886;29;20027;-75
2023/09/22 15:59:09;;;;;;;1999.90;999.90;;;;;;;;;;4954234;28;20487;-72
2023/09/22 16:01:36;;;;;;;1999.90;999.90;;;;;;;;;;4959851;28;20035;-74
2023/09/22 16:04:02;;;;;;;1999.90;999.90;;;;;;;;;;4962439;28;20027;-71
2023/09/22 16:06:29;;;;;;;1999.90;999.90;;;;;;;;;;4960490;28;20223;-77
2023/09/22 16:08:55;;;;;;;1999.90;999.90;;;;;;;;;;4968441;28;20190;-76
2023/09/22 16:11:22;;;;;;;1999.90;999.90;;;;;;;;;;4970730;28;20106;-72
2023/09/22 16:13:48;;;;;;;1999.90;999.90;;;;;;;;;;4972818;28;20081;-73
2023/09/22 16:16:14;;;;;;;1999.90;999.90;;;;;;;;;;4963435;28;20038;-74
2023/09/22 16:18:41;;;;;;;1999.90;999.90;;;;;;;;;;4953436;28;20435;-70
2023/09/22 16:21:08;;;;;;;1999.90;999.90;;;;;;;;;;4964364;28;20085;-71
2023/09/22 16:23:34;;;;;;;1999.90;999.90;;;;;;;;;;4968986;28;20499;-72
2023/09/22 16:26:04;;;;;;;1999.90;999.90;;;;;;;;;;4966519;28;20097;-70
2023/09/22 16:28:32;;;;;;;1999.90;999.90;;;;;;;;;;4963718;28;20034;-72
2023/09/22 16:30:58;;;;;;;1999.90;999.90;;;;;;;;;;4967862;28;20046;-78
2023/09/22 16:33:32;;;;;;;1999.90;999.90;;;;;;;;;;4967154;28;20507;-70
2023/09/22 16:35:58;;;;;;;1999.90;999.90;;;;;;;;;;4965586;28;20066;-71
2023/09/22 16:38:25;;;;;;;1999.90;999.90;;;;;;;;;;4959644;28;20050;-71
2023/09/22 16:40:54;;;;;;;1999.90;999.90;;;;;;;;;;4963300;28;20034;-77
2023/09/22 16:43:20;;;;;;;1999.90;999.90;;;;;;;;;;4945410;28;20057;-73
2023/09/22 16:45:46;;;;;;;1999.90;999.90;;;;;;;;;;4962604;28;20066;-75
2023/09/22 16:48:12;;;;;;;1999.90;999.90;;;;;;;;;;4962366;28;20501;-71
2023/09/22 16:50:38;;;;;;;1999.90;999.90;;;;;;;;;;4958337;28;20463;-74
2023/09/22 16:53:04;;;;;;;1999.90;999.90;;;;;;;;;;4953169;29;20039;-77
2023/09/22 16:55:31;;;;;;;1999.90;999.90;;;;;;;;;;4953221;28;20034;-71
2023/09/22 16:57:58;;;;;;;1999.90;999.90;;;;;;;;;;4953235;28;20440;-74
2023/09/22 17:00:24;;;;;;;1999.90;999.90;;;;;;;;;;4962556;28;20481;-71
2023/09/22 17:02:51;;;;;;;1999.90;999.90;;;;;;;;;;4962450;28;20537;-75
2023/09/22 17:05:17;;;;;;;1999.90;999.90;;;;;;;;;;4961863;28;20029;-71
2023/09/22 17:07:44;;;;;;;1999.90;999.90;;;;;;;;;;4961299;28;20058;-69
2023/09/22 17:10:10;;;;;;;1999.90;999.90;;;;;;;;;;4965894;28;20062;-78
2023/09/22 17:12:37;;;;;;;1999.90;999.90;;;;;;;;;;4960018;28;20043;-69
2023/09/22 17:15:05;;;;;;;1999.90;999.90;;;;;;;;;;4961240;28;20038;-72
2023/09/22 17:17:32;;;;;;;1999.90;999.90;;;;;;;;;;4962597;28;20022;-73
2023/09/22 17:19:58;;;;;;;1999.90;999.90;;;;;;;;;;4961561;28;20019;-73
2023/09/22 17:22:24;;;;;;;1999.90;999.90;;;;;;;;;;4960947;28;20031;-71
2023/09/22 17:24:50;;;;;;;1999.90;999.90;;;;;;;;;;4962500;28;20046;-73
2023/09/22 17:27:16;;;;;;;1999.90;999.90;;;;;;;;;;4960899;28;20027;-73
2023/09/22 17:29:46;;;;;;;1999.90;999.90;;;;;;;;;;4961644;28;20034;-70
2023/09/22 17:32:12;;;;;;;1999.90;999.90;;;;;;;;;;4962667;28;20390;-74
2023/09/22 17:34:38;;;;;;;1999.90;999.90;;;;;;;;;;4961081;28;20027;-71
2023/09/22 17:37:04;;;;;;;1999.90;999.90;;;;;;;;;;4943726;28;20030;-70
2023/09/22 17:39:30;;;;;;;1999.90;999.90;;;;;;;;;;4948348;28;20039;-69
2023/09/22 17:41:57;;;;;;;1999.90;999.90;;;;;;;;;;4966712;28;20019;-72
2023/09/22 17:44:23;;;;;;;1999.90;999.90;;;;;;;;;;4958008;28;20031;-70
2023/09/22 17:46:53;;;;;;;1999.90;999.90;;;;;;;;;;4962066;28;20038;-72
2023/09/22 17:49:22;;;;;;;1999.90;999.90;;;;;;;;;;4961604;28;20110;-69
2023/09/22 17:51:48;;;;;;;1999.90;999.90;;;;;;;;;;4960698;28;20064;-68
2023/09/22 17:54:15;;;;;;;1999.90;999.90;;;;;;;;;;4961276;28;20024;-76
2023/09/22 17:56:41;;;;;;;1999.90;999.90;;;;;;;;;;4960514;28;20483;-68
2023/09/22 17:59:09;;;;;;;1999.90;999.90;;;;;;;;;;4971474;28;20027;-72
2023/09/22 18:01:35;;;;;;;1999.90;999.90;;;;;;;;;;4953521;28;20031;-66
2023/09/22 18:04:01;;;;;;;1999.90;999.90;;;;;;;;;;4935203;29;20027;-66
2023/09/22 18:06:28;;;;;;;1999.90;999.90;;;;;;;;;;4952044;29;20067;-72
2023/09/22 18:08:54;;;;;;;1999.90;999.90;;;;;;;;;;4951719;29;20494;-70
2023/09/22 18:11:20;;;;;;;1999.90;999.90;;;;;;;;;;4951808;28;20086;-68
2023/09/22 18:13:47;;;;;;;1999.90;999.90;;;;;;;;;;4953331;29;20550;-67
2023/09/22 18:16:13;;;;;;;1999.90;999.90;;;;;;;;;;4952069;29;20031;-67
2023/09/22 18:18:40;;;;;;;1999.90;999.90;;;;;;;;;;4951615;29;20026;-71
2023/09/22 18:21:06;;;;;;;1999.90;999.90;;;;;;;;;;4949300;29;20547;-76
2023/09/22 18:23:33;;;;;;;1999.90;999.90;;;;;;;;;;4950796;28;20027;-68
2023/09/22 18:26:05;;;;;;;1999.90;999.90;;;;;;;;;;4950987;28;20042;-74